createdAt,value
2023-03-22T00:00:12.570Z,97.49
2023-03-22T00:01:11.787Z,97.49
2023-03-22T00:02:11.763Z,97.49
2023-03-22T00:03:13.822Z,97.60
2023-03-22T00:04:12.083Z,97.60
2023-03-22T00:05:14.246Z,97.60
2023-03-22T00:06:13.724Z,97.60
2023-03-22T00:07:13.081Z,97.60
2023-03-22T00:08:13.612Z,97.70
2023-03-22T00:09:13.999Z,97.85
2023-03-22T00:10:16.291Z,98.05
2023-03-22T00:11:15.570Z,98.16
2023-03-22T00:12:14.853Z,98.25
2023-03-22T00:13:16.049Z,98.25
2023-03-22T00:14:15.512Z,98.25
2023-03-22T00:15:17.795Z,98.25
2023-03-22T00:16:16.302Z,98.36
2023-03-22T00:17:16.207Z,98.25
2023-03-22T00:18:16.596Z,98.36
2023-03-22T00:19:16.950Z,98.57
2023-03-22T00:20:19.636Z,98.77
2023-03-22T00:21:19.313Z,98.82
2023-03-22T00:22:17.691Z,99.02
2023-03-22T00:23:18.885Z,99.12
2023-03-22T00:24:18.173Z,99.02
2023-03-22T00:25:18.541Z,99.02
2023-03-22T00:26:18.865Z,99.02
2023-03-22T00:27:19.380Z,98.92
2023-03-22T00:28:19.248Z,99.12
2023-03-22T00:29:19.790Z,99.02
2023-03-22T00:30:19.714Z,99.12
2023-03-22T00:31:21.777Z,99.12
2023-03-22T00:32:22.713Z,99.63
2023-03-22T00:33:20.343Z,99.54
2023-03-22T00:34:20.685Z,99.43
2023-03-22T00:35:21.994Z,99.33
2023-03-22T00:36:24.153Z,99.48
2023-03-22T00:37:21.436Z,99.68
2023-03-22T00:38:27.221Z,99.99
2023-03-22T00:39:21.883Z,99.99
2023-03-22T00:40:22.194Z,99.99
2023-03-22T00:41:22.681Z,99.99
2023-03-22T00:42:24.767Z,99.99
2023-03-22T00:43:26.336Z,99.99
2023-03-22T00:44:22.746Z,99.99
2023-03-22T00:45:22.789Z,99.99
2023-03-22T00:46:23.221Z,99.95
2023-03-22T00:47:23.126Z,99.74
2023-03-22T00:48:23.713Z,99.43
2023-03-22T00:49:24.098Z,99.33
2023-03-22T00:50:24.096Z,99.43
2023-03-22T00:51:24.700Z,99.43
2023-03-22T00:52:26.625Z,99.43
2023-03-22T00:53:25.183Z,99.33
2023-03-22T00:54:24.828Z,99.33
2023-03-22T00:55:24.618Z,99.43
2023-03-22T00:56:25.978Z,99.22
2023-03-22T00:57:25.231Z,99.22
2023-03-22T00:58:26.590Z,99.33
2023-03-22T00:59:25.914Z,99.33
2023-03-22T01:00:26.284Z,99.33
2023-03-22T01:01:28.649Z,99.33
2023-03-22T01:02:29.005Z,99.33
2023-03-22T01:03:28.192Z,99.43
2023-03-22T01:04:27.758Z,99.54
2023-03-22T01:05:30.054Z,99.54
2023-03-22T01:06:45.352Z,99.54
2023-03-22T01:07:30.389Z,99.63
2023-03-22T01:08:29.240Z,99.63
2023-03-22T01:09:29.701Z,99.74
2023-03-22T01:10:30.147Z,99.63
2023-03-22T01:11:30.459Z,99.74
2023-03-22T01:12:30.807Z,99.63
2023-03-22T01:13:31.262Z,99.63
2023-03-22T01:14:32.476Z,99.63
2023-03-22T01:15:32.421Z,99.63
2023-03-22T01:16:42.799Z,99.74
2023-03-22T01:17:32.753Z,99.74
2023-03-22T01:18:34.132Z,99.74
2023-03-22T01:19:34.471Z,99.74
2023-03-22T01:21:38.628Z,99.74
2023-03-22T01:22:25.870Z,99.63
2023-03-22T01:23:26.152Z,99.63
2023-03-22T01:24:26.548Z,99.63
2023-03-22T01:25:26.872Z,99.54
2023-03-22T01:26:27.157Z,99.54
2023-03-22T01:27:27.419Z,99.54
2023-03-22T01:28:28.604Z,99.54
2023-03-22T01:29:27.957Z,99.54
2023-03-22T01:30:28.289Z,99.43
2023-03-22T01:31:30.634Z,99.43
2023-03-22T01:32:28.986Z,99.33
2023-03-22T01:33:31.316Z,99.43
2023-03-22T01:34:29.628Z,99.43
2023-03-22T01:35:31.428Z,99.54
2023-03-22T01:36:33.285Z,99.63
2023-03-22T01:37:32.658Z,99.74
2023-03-22T01:38:32.773Z,99.89
2023-03-22T01:39:33.155Z,99.99
2023-03-22T01:40:32.380Z,99.99
2023-03-22T01:41:31.759Z,99.99
2023-03-22T01:42:33.075Z,99.99
2023-03-22T01:43:32.404Z,99.99
2023-03-22T01:44:32.693Z,99.99
2023-03-22T01:45:33.002Z,99.99
2023-03-22T01:46:38.736Z,99.99
2023-03-22T01:47:33.736Z,99.99
2023-03-22T01:48:34.016Z,99.99
2023-03-22T01:49:34.600Z,99.99
2023-03-22T01:50:34.440Z,99.99
2023-03-22T01:51:34.825Z,99.99
2023-03-22T01:52:35.104Z,99.99
2023-03-22T01:53:36.588Z,99.99
2023-03-22T01:54:35.951Z,99.99
2023-03-22T01:55:35.725Z,99.99
2023-03-22T01:56:37.509Z,99.99
2023-03-22T01:57:36.374Z,99.99
2023-03-22T01:58:36.687Z,99.99
2023-03-22T01:59:37.123Z,99.99
2023-03-22T02:00:37.297Z,99.99
2023-03-22T02:01:37.327Z,99.99
2023-03-22T02:02:37.763Z,99.99
2023-03-22T02:03:39.170Z,99.99
2023-03-22T02:04:38.842Z,99.99
2023-03-22T02:05:41.922Z,99.99
2023-03-22T02:06:45.732Z,99.99
2023-03-22T02:07:41.856Z,99.99
2023-03-22T02:08:42.564Z,99.99
2023-03-22T02:09:39.347Z,99.99
2023-03-22T02:10:40.837Z,99.99
2023-03-22T02:11:43.146Z,99.99
2023-03-22T02:12:39.441Z,99.99
2023-03-22T02:13:42.076Z,99.99
2023-03-22T02:14:42.704Z,99.99
2023-03-22T02:15:40.187Z,99.99
2023-03-22T02:16:42.595Z,99.99
2023-03-22T02:17:42.977Z,99.99
2023-03-22T02:18:42.457Z,99.99
2023-03-22T02:19:41.317Z,99.99
2023-03-22T02:20:41.868Z,99.99
2023-03-22T02:21:41.757Z,99.99
2023-03-22T02:22:44.035Z,99.99
2023-03-22T02:23:42.469Z,99.99
2023-03-22T02:24:44.021Z,99.99
2023-03-22T02:25:42.884Z,99.99
2023-03-22T02:26:45.466Z,99.99
2023-03-22T02:27:43.302Z,99.99
2023-03-22T02:28:45.707Z,99.99
2023-03-22T02:29:45.117Z,99.99
2023-03-22T02:30:46.379Z,99.99
2023-03-22T02:31:44.670Z,99.99
2023-03-22T02:32:45.042Z,99.99
2023-03-22T02:33:45.316Z,99.99
2023-03-22T02:34:45.589Z,99.99
2023-03-22T02:35:47.062Z,99.99
2023-03-22T02:36:47.990Z,99.99
2023-03-22T02:37:46.512Z,99.99
2023-03-22T02:38:48.439Z,99.99
2023-03-22T02:39:46.760Z,99.99
2023-03-22T02:40:47.089Z,99.99
2023-03-22T02:41:47.379Z,99.99
2023-03-22T02:42:47.873Z,99.99
2023-03-22T02:43:49.621Z,99.99
2023-03-22T02:44:48.946Z,99.99
2023-03-22T02:45:50.184Z,99.99
2023-03-22T02:46:49.478Z,99.99
2023-03-22T02:47:50.536Z,99.99
2023-03-22T02:48:49.160Z,99.99
2023-03-22T02:49:48.956Z,99.99
2023-03-22T02:50:49.429Z,99.99
2023-03-22T02:51:50.614Z,99.99
2023-03-22T02:52:49.543Z,99.99
2023-03-22T02:53:50.532Z,99.99
2023-03-22T02:54:50.731Z,99.99
2023-03-22T02:55:52.424Z,99.99
2023-03-22T02:56:51.628Z,99.99
2023-03-22T02:57:52.041Z,99.99
2023-03-22T02:58:52.567Z,99.99
2023-03-22T02:59:51.121Z,99.99
2023-03-22T03:00:52.522Z,99.99
2023-03-22T03:01:51.852Z,99.99
2023-03-22T03:02:52.973Z,99.99
2023-03-22T03:03:51.973Z,99.99
2023-03-22T03:04:54.035Z,99.99
2023-03-22T03:05:53.980Z,99.99
2023-03-22T03:06:52.485Z,99.99
2023-03-22T03:07:52.270Z,99.99
2023-03-22T03:08:52.570Z,99.99
2023-03-22T03:09:52.935Z,99.99
2023-03-22T03:10:53.688Z,99.99
2023-03-22T03:11:53.528Z,99.99
2023-03-22T03:12:54.027Z,99.99
2023-03-22T03:13:54.015Z,99.99
2023-03-22T03:14:55.028Z,99.99
2023-03-22T03:15:54.014Z,99.99
2023-03-22T03:16:54.693Z,99.99
2023-03-22T03:17:54.149Z,99.99
2023-03-22T03:18:54.291Z,99.99
2023-03-22T03:19:54.635Z,99.99
2023-03-22T03:20:54.146Z,99.99
2023-03-22T03:21:55.159Z,99.99
2023-03-22T03:22:54.520Z,99.99
2023-03-22T03:23:54.960Z,99.99
2023-03-22T03:24:55.669Z,99.99
2023-03-22T03:25:55.617Z,99.99
2023-03-22T03:26:57.105Z,99.99
2023-03-22T03:27:56.897Z,99.99
2023-03-22T03:28:56.604Z,99.99
2023-03-22T03:29:58.082Z,99.99
2023-03-22T03:30:56.795Z,99.99
2023-03-22T03:31:57.036Z,99.99
2023-03-22T03:32:57.913Z,99.99
2023-03-22T03:34:02.280Z,99.99
2023-03-22T03:34:58.557Z,99.99
2023-03-22T03:35:57.852Z,99.99
2023-03-22T03:36:58.806Z,99.99
2023-03-22T03:37:58.397Z,99.99
2023-03-22T03:38:58.455Z,99.99
2023-03-22T03:40:02.896Z,99.99
2023-03-22T03:40:59.396Z,99.99
2023-03-22T03:41:58.837Z,99.99
2023-03-22T03:42:59.114Z,99.99
2023-03-22T03:43:59.439Z,99.99
2023-03-22T03:44:59.775Z,99.99
2023-03-22T03:46:00.315Z,99.99
2023-03-22T03:47:01.087Z,99.99
2023-03-22T03:48:00.517Z,99.99
2023-03-22T03:49:01.016Z,99.99
2023-03-22T03:50:00.936Z,99.99
2023-03-22T03:51:01.231Z,99.99
2023-03-22T03:52:01.658Z,99.99
2023-03-22T03:53:01.828Z,99.99
2023-03-22T03:54:01.883Z,99.99
2023-03-22T03:55:03.333Z,99.99
2023-03-22T03:56:04.021Z,99.99
2023-03-22T03:57:03.986Z,99.99
2023-03-22T03:58:02.598Z,99.99
2023-03-22T03:59:03.323Z,99.99
2023-03-22T04:00:05.956Z,99.99
2023-03-22T04:01:04.196Z,99.99
2023-03-22T04:02:04.454Z,99.99
2023-03-22T04:03:04.688Z,99.99
2023-03-22T04:04:04.840Z,99.99
2023-03-22T04:05:06.676Z,99.99
2023-03-22T04:06:06.183Z,99.99
2023-03-22T04:07:06.015Z,99.99
2023-03-22T04:08:04.915Z,99.99
2023-03-22T04:09:06.211Z,99.99
2023-03-22T04:10:06.832Z,99.99
2023-03-22T04:11:08.519Z,99.99
2023-03-22T04:12:07.432Z,99.99
2023-03-22T04:13:06.866Z,99.99
2023-03-22T04:14:06.977Z,99.99
2023-03-22T04:15:06.885Z,99.99
2023-03-22T04:16:07.264Z,99.99
2023-03-22T04:17:07.631Z,99.99
2023-03-22T04:18:09.038Z,99.99
2023-03-22T04:19:09.116Z,99.99
2023-03-22T04:20:08.674Z,99.99
2023-03-22T04:21:09.111Z,99.99
2023-03-22T04:22:09.284Z,99.99
2023-03-22T04:23:10.644Z,99.99
2023-03-22T04:24:10.522Z,99.99
2023-03-22T04:25:09.789Z,99.99
2023-03-22T04:26:13.636Z,99.99
2023-03-22T04:27:10.585Z,99.99
2023-03-22T04:28:10.849Z,99.99
2023-03-22T04:29:11.355Z,99.99
2023-03-22T04:30:11.303Z,99.99
2023-03-22T04:31:11.551Z,99.99
2023-03-22T04:32:11.563Z,99.99
2023-03-22T04:33:11.929Z,99.99
2023-03-22T04:34:12.225Z,99.99
2023-03-22T04:35:16.096Z,99.99
2023-03-22T04:36:15.232Z,99.99
2023-03-22T04:37:13.088Z,99.99
2023-03-22T04:38:14.240Z,99.99
2023-03-22T04:39:13.381Z,99.99
2023-03-22T04:40:14.508Z,99.99
2023-03-22T04:41:13.779Z,99.99
2023-03-22T04:42:17.898Z,99.99
2023-03-22T04:43:15.217Z,99.99
2023-03-22T04:44:14.784Z,99.89
2023-03-22T04:45:19.546Z,99.99
2023-03-22T04:46:16.367Z,99.79
2023-03-22T04:47:14.661Z,99.79
2023-03-22T04:48:15.182Z,99.63
2023-03-22T04:49:15.119Z,99.58
2023-03-22T04:50:17.338Z,99.58
2023-03-22T04:51:15.792Z,99.68
2023-03-22T04:52:17.449Z,99.79
2023-03-22T04:53:16.341Z,99.79
2023-03-22T04:54:17.640Z,99.79
2023-03-22T04:55:17.593Z,99.89
2023-03-22T04:56:18.771Z,99.89
2023-03-22T04:57:18.577Z,99.68
2023-03-22T04:58:17.870Z,99.68
2023-03-22T04:59:22.006Z,99.68
2023-03-22T05:00:18.388Z,99.58
2023-03-22T05:01:18.808Z,99.68
2023-03-22T05:02:20.020Z,99.68
2023-03-22T05:03:18.896Z,99.68
2023-03-22T05:04:21.258Z,99.58
2023-03-22T05:05:20.348Z,99.58
2023-03-22T05:06:25.143Z,99.43
2023-03-22T05:07:19.998Z,99.43
2023-03-22T05:08:22.271Z,99.48
2023-03-22T05:09:23.267Z,99.48
2023-03-22T05:10:20.897Z,99.58
2023-03-22T05:11:21.244Z,99.68
2023-03-22T05:12:22.108Z,99.68
2023-03-22T05:13:21.553Z,99.58
2023-03-22T05:14:22.112Z,99.58
2023-03-22T05:15:22.102Z,99.48
2023-03-22T05:16:22.138Z,99.38
2023-03-22T05:17:21.982Z,99.33
2023-03-22T05:18:22.300Z,99.38
2023-03-22T05:19:22.802Z,99.27
2023-03-22T05:20:22.669Z,99.38
2023-03-22T05:21:23.171Z,99.58
2023-03-22T05:22:23.052Z,99.48
2023-03-22T05:23:23.600Z,99.48
2023-03-22T05:24:24.933Z,99.58
2023-03-22T05:25:24.845Z,99.58
2023-03-22T05:26:24.240Z,99.58
2023-03-22T05:27:24.806Z,99.58
2023-03-22T05:28:24.894Z,99.58
2023-03-22T05:29:25.275Z,99.58
2023-03-22T05:30:25.476Z,99.58
2023-03-22T05:31:27.250Z,99.58
2023-03-22T05:32:29.731Z,99.58
2023-03-22T05:33:26.135Z,99.48
2023-03-22T05:34:28.403Z,99.48
2023-03-22T05:35:27.417Z,99.48
2023-03-22T05:36:35.661Z,99.38
2023-03-22T05:37:27.667Z,99.38
2023-03-22T05:38:28.640Z,99.48
2023-03-22T05:39:28.766Z,99.48
2023-03-22T05:40:28.241Z,99.48
2023-03-22T05:41:28.136Z,99.33
2023-03-22T05:42:28.514Z,99.33
2023-03-22T05:43:32.650Z,99.22
2023-03-22T05:44:29.037Z,99.22
2023-03-22T05:45:29.157Z,99.22
2023-03-22T05:46:30.140Z,99.22
2023-03-22T05:47:30.808Z,99.22
2023-03-22T05:48:29.997Z,99.22
2023-03-22T05:49:30.312Z,99.12
2023-03-22T05:50:31.363Z,99.02
2023-03-22T05:51:30.603Z,99.02
2023-03-22T05:52:30.521Z,99.12
2023-03-22T05:53:31.916Z,99.12
2023-03-22T05:54:32.895Z,99.02
2023-03-22T05:55:31.487Z,99.02
2023-03-22T05:56:31.482Z,98.92
2023-03-22T05:57:31.366Z,99.02
2023-03-22T05:58:31.780Z,99.12
2023-03-22T05:59:33.151Z,99.22
2023-03-22T06:00:32.272Z,99.27
2023-03-22T06:01:35.240Z,99.38
2023-03-22T06:02:32.978Z,99.48
2023-03-22T06:03:34.022Z,99.58
2023-03-22T06:04:34.983Z,99.68
2023-03-22T06:05:35.302Z,99.68
2023-03-22T06:06:38.036Z,99.79
2023-03-22T06:07:34.609Z,99.89
2023-03-22T06:08:34.753Z,99.89
2023-03-22T06:09:34.484Z,99.79
2023-03-22T06:10:35.988Z,99.68
2023-03-22T06:11:34.405Z,99.58
2023-03-22T06:12:34.972Z,99.43
2023-03-22T06:13:37.109Z,99.43
2023-03-22T06:14:36.403Z,99.33
2023-03-22T06:15:36.698Z,99.48
2023-03-22T06:16:47.669Z,99.33
2023-03-22T06:17:37.052Z,99.38
2023-03-22T06:18:37.397Z,99.27
2023-03-22T06:19:36.699Z,99.33
2023-03-22T06:20:39.589Z,99.22
2023-03-22T06:21:38.719Z,99.12
2023-03-22T06:22:43.653Z,99.02
2023-03-22T06:23:40.268Z,98.92
2023-03-22T06:24:46.445Z,99.02
2023-03-22T06:25:40.518Z,98.92
2023-03-22T06:26:40.828Z,98.82
2023-03-22T06:27:39.731Z,98.61
2023-03-22T06:29:01.791Z,98.61
2023-03-22T06:29:45.812Z,98.71
2023-03-22T06:30:45.850Z,98.51
2023-03-22T06:31:44.311Z,98.51
2023-03-22T06:32:44.370Z,98.61
2023-03-22T06:33:43.650Z,98.61
2023-03-22T06:34:44.849Z,98.51
2023-03-22T06:35:47.146Z,98.51
2023-03-22T06:42:27.698Z,98.61
2023-03-22T06:43:42.871Z,98.05
2023-03-22T06:44:40.706Z,97.74
2023-03-22T06:45:57.417Z,97.74
2023-03-22T06:46:53.143Z,97.08
2023-03-22T06:47:45.467Z,96.32
2023-03-22T06:48:36.591Z,96.01
2023-03-22T06:49:38.037Z,95.46
2023-03-22T06:50:35.811Z,94.95
2023-03-22T06:51:44.081Z,94.54
2023-03-22T06:52:38.747Z,94.43
2023-03-22T06:53:37.730Z,94.33
2023-03-22T06:54:39.702Z,94.74
2023-03-22T06:55:38.308Z,94.74
2023-03-22T06:56:42.654Z,94.54
2023-03-22T06:57:39.310Z,94.64
2023-03-22T06:58:40.720Z,94.43
2023-03-22T06:59:38.710Z,94.23
2023-03-22T07:00:44.547Z,94.23
2023-03-22T07:01:38.568Z,93.98
2023-03-22T07:02:41.560Z,93.77
2023-03-22T07:03:39.286Z,93.57
2023-03-22T07:04:43.292Z,93.37
2023-03-22T07:05:46.086Z,93.01
2023-03-22T07:07:04.719Z,92.71
2023-03-22T07:07:41.301Z,92.81
2023-03-22T07:08:40.502Z,92.15
2023-03-22T07:09:43.069Z,91.54
2023-03-22T07:10:47.309Z,91.33
2023-03-22T07:11:40.852Z,90.88
2023-03-22T07:12:39.992Z,90.43
2023-03-22T07:13:41.420Z,89.82
2023-03-22T07:14:44.027Z,89.26
2023-03-22T07:15:40.698Z,89.06
2023-03-22T07:17:41.034Z,88.10
2023-03-22T07:18:43.337Z,87.76
2023-03-22T07:19:45.359Z,86.83
2023-03-22T07:20:42.749Z,86.63
2023-03-22T07:21:53.674Z,86.29
2023-03-22T07:22:49.231Z,85.71
2023-03-22T07:23:52.000Z,86.08
2023-03-22T07:25:07.599Z,85.63
2023-03-22T07:25:54.983Z,84.92
2023-03-22T07:27:23.357Z,84.41
2023-03-22T07:27:58.258Z,83.96
2023-03-22T07:28:59.957Z,83.86
2023-03-22T07:29:48.844Z,83.56
2023-03-22T07:30:45.856Z,83.04
2023-03-22T07:31:46.571Z,83.80
2023-03-22T07:32:46.523Z,83.56
2023-03-22T07:33:45.870Z,83.25
2023-03-22T07:34:46.449Z,83.15
2023-03-22T07:35:50.224Z,83.21
2023-03-22T07:36:50.873Z,82.90
2023-03-22T07:38:55.020Z,82.84
2023-03-22T07:39:47.740Z,83.25
2023-03-22T07:40:50.562Z,83.80
2023-03-22T07:41:57.025Z,84.66
2023-03-22T07:42:55.706Z,85.27
2023-03-22T07:43:56.698Z,85.47
2023-03-22T07:45:01.538Z,85.92
2023-03-22T07:46:01.627Z,86.02
2023-03-22T07:47:53.479Z,86.98
2023-03-22T07:48:55.717Z,86.98
2023-03-22T07:50:01.120Z,86.88
2023-03-22T07:50:54.571Z,87.38
2023-03-22T07:51:53.564Z,87.49
2023-03-22T07:52:50.895Z,87.38
2023-03-22T07:53:54.633Z,87.38
2023-03-22T07:54:53.124Z,87.70
2023-03-22T07:55:57.939Z,87.29
2023-03-22T07:57:55.627Z,86.88
2023-03-22T07:59:53.473Z,87.24
2023-03-22T08:01:00.190Z,87.24
2023-03-22T08:02:04.352Z,86.80
2023-03-22T08:02:56.471Z,86.08
2023-03-22T08:04:15.280Z,85.57
2023-03-22T08:06:07.242Z,85.57
2023-03-22T08:09:03.554Z,85.22
2023-03-22T08:11:08.312Z,84.47
2023-03-22T08:15:06.185Z,83.42
2023-03-22T08:16:01.131Z,83.31
2023-03-22T08:17:01.958Z,83.11
2023-03-22T08:18:26.347Z,83.21
2023-03-22T08:19:07.193Z,83.42
2023-03-22T08:19:56.367Z,82.87
2023-03-22T08:20:55.247Z,82.73
2023-03-22T08:21:55.749Z,81.57
2023-03-22T08:22:55.213Z,80.79
2023-03-22T08:24:02.541Z,81.20
2023-03-22T08:24:56.607Z,81.74
2023-03-22T08:26:00.523Z,82.50
2023-03-22T08:27:02.197Z,83.45
2023-03-22T08:28:03.301Z,83.86
2023-03-22T08:29:02.454Z,83.96
2023-03-22T08:30:57.929Z,84.37
2023-03-22T08:32:33.831Z,83.76
2023-03-22T08:40:23.628Z,84.72
2023-03-22T08:44:08.010Z,84.27
2023-03-22T08:46:08.501Z,83.65
2023-03-22T08:47:01.195Z,83.56
2023-03-22T08:48:04.219Z,83.65
2023-03-22T08:49:04.182Z,83.76
2023-03-22T08:50:01.104Z,83.35
2023-03-22T08:51:14.867Z,83.56
2023-03-22T08:52:00.136Z,84.27
2023-03-22T08:53:07.483Z,83.86
2023-03-22T08:54:05.375Z,84.27
2023-03-22T08:56:11.280Z,84.41
2023-03-22T08:57:15.233Z,84.11
2023-03-22T09:00:15.411Z,83.70
2023-03-22T09:02:09.962Z,83.25
2023-03-22T09:02:37.780Z,82.64
2023-03-22T09:03:45.477Z,82.60
2023-03-22T09:04:53.342Z,82.66
2023-03-22T09:05:33.158Z,81.54
2023-03-22T09:07:36.790Z,81.54
2023-03-22T09:08:51.561Z,81.04
2023-03-22T09:09:32.775Z,81.68
2023-03-22T09:10:36.985Z,81.68
2023-03-22T09:11:34.953Z,82.09
2023-03-22T09:12:41.727Z,82.60
2023-03-22T09:13:40.800Z,81.68
2023-03-22T09:15:40.282Z,81.48
2023-03-22T09:18:39.832Z,80.08
2023-03-22T10:10:13.052Z,69.88
2023-03-22T10:11:01.783Z,70.49
2023-03-22T10:11:46.139Z,70.18
2023-03-22T10:12:47.919Z,70.72
2023-03-22T10:13:48.641Z,70.83
2023-03-22T10:14:59.121Z,71.26
2023-03-22T10:16:47.904Z,71.77
2023-03-22T10:18:04.028Z,70.59
2023-03-22T10:20:49.961Z,68.00
2023-03-22T10:25:48.315Z,68.74
2023-03-22T10:27:02.567Z,67.02
2023-03-22T10:27:51.436Z,67.22
2023-03-22T10:28:46.874Z,67.63
2023-03-22T10:30:44.512Z,67.96
2023-03-22T10:32:05.928Z,68.94
2023-03-22T10:33:13.054Z,69.81
2023-03-22T10:35:03.151Z,71.16
2023-03-22T10:38:44.383Z,71.50
2023-03-22T10:40:14.883Z,70.32
2023-03-22T10:42:16.092Z,68.16
2023-03-22T10:45:10.182Z,68.02
2023-03-22T10:47:11.033Z,68.43
2023-03-22T10:48:10.030Z,68.33
2023-03-22T10:49:07.707Z,68.97
2023-03-22T10:51:18.720Z,69.17
2023-03-22T10:52:22.511Z,68.43
2023-03-22T10:55:10.557Z,66.95
2023-03-22T10:56:20.340Z,66.78
2023-03-22T10:57:35.325Z,67.25
2023-03-22T10:58:10.655Z,66.44
2023-03-22T10:59:34.420Z,66.92
2023-03-22T11:00:19.599Z,65.70
2023-03-22T11:01:46.445Z,65.10
2023-03-22T11:02:18.927Z,67.18
2023-03-22T11:03:37.626Z,66.98
2023-03-22T11:10:28.914Z,65.87
2023-03-22T11:11:17.368Z,66.58
2023-03-22T11:15:34.308Z,65.70
2023-03-22T11:16:14.096Z,64.90
2023-03-22T11:17:44.538Z,65.67
2023-03-22T11:19:57.412Z,67.22
2023-03-22T11:37:53.415Z,66.81
2023-03-22T11:38:50.196Z,66.81
2023-03-22T11:39:53.411Z,67.55
2023-03-22T11:40:59.261Z,68.66
2023-03-22T11:41:53.280Z,68.06
2023-03-22T11:43:03.167Z,68.56
2023-03-22T11:44:05.300Z,67.14
2023-03-22T11:45:03.366Z,66.94
2023-03-22T11:45:59.629Z,67.79
2023-03-22T11:57:08.999Z,69.47
2023-03-22T11:58:05.250Z,70.39
2023-03-22T11:58:59.633Z,70.59
2023-03-22T11:59:56.284Z,71.13
2023-03-22T12:00:56.133Z,70.89
2023-03-22T12:01:51.493Z,70.18
2023-03-22T12:02:52.735Z,69.84
2023-03-22T12:03:54.934Z,69.64
2023-03-22T12:04:53.612Z,69.84
2023-03-22T12:05:53.947Z,70.15
2023-03-22T12:06:59.283Z,69.74
2023-03-22T12:07:54.284Z,69.44
2023-03-22T12:08:55.959Z,68.70
2023-03-22T12:09:54.886Z,68.70
2023-03-22T12:10:53.601Z,68.49
2023-03-22T12:11:57.736Z,69.07
2023-03-22T12:12:53.777Z,68.19
2023-03-22T12:13:54.403Z,68.87
2023-03-22T12:14:54.075Z,68.56
2023-03-22T12:15:56.257Z,68.56
2023-03-22T12:16:55.662Z,67.85
2023-03-22T12:17:55.413Z,67.25
2023-03-22T12:18:56.446Z,67.68
2023-03-22T12:19:57.769Z,67.25
2023-03-22T12:20:58.966Z,67.05
2023-03-22T12:22:21.905Z,67.55
2023-03-22T12:22:57.159Z,68.09
2023-03-22T12:24:03.869Z,68.19
2023-03-22T12:24:57.435Z,68.49
2023-03-22T12:25:58.105Z,68.90
2023-03-22T12:27:01.358Z,68.97
2023-03-22T12:27:59.982Z,68.26
2023-03-22T12:28:57.262Z,68.40
2023-03-22T12:29:57.586Z,68.49
2023-03-22T12:31:00.591Z,69.31
2023-03-22T12:31:58.949Z,69.10
2023-03-22T12:33:00.489Z,69.44
2023-03-22T12:34:02.856Z,69.64
2023-03-22T12:35:17.606Z,69.64
2023-03-22T12:36:02.015Z,70.05
2023-03-22T12:37:01.543Z,69.34
2023-03-22T12:37:59.941Z,69.54
2023-03-22T12:38:59.688Z,69.95
2023-03-22T12:40:02.405Z,69.78
2023-03-22T12:41:01.064Z,69.68
2023-03-22T12:42:01.639Z,69.88
2023-03-22T12:43:00.340Z,69.95
2023-03-22T12:44:02.029Z,69.44
2023-03-22T12:45:05.705Z,69.78
2023-03-22T12:46:05.238Z,69.84
2023-03-22T12:47:02.950Z,69.84
2023-03-22T12:48:10.938Z,69.78
2023-03-22T12:49:03.396Z,69.98
2023-03-22T12:50:06.663Z,69.68
2023-03-22T12:51:03.001Z,69.47
2023-03-22T12:52:02.745Z,69.64
2023-03-22T12:53:02.023Z,69.24
2023-03-22T12:54:02.914Z,69.34
2023-03-22T12:55:02.745Z,68.43
2023-03-22T12:56:06.529Z,68.52
2023-03-22T12:57:07.278Z,69.13
2023-03-22T12:58:04.342Z,68.49
2023-03-22T12:59:03.680Z,68.19
2023-03-22T13:00:08.236Z,68.60
2023-03-22T13:01:04.432Z,68.09
2023-03-22T13:02:03.801Z,67.28
2023-03-22T13:03:05.356Z,66.37
2023-03-22T13:04:06.736Z,65.96
2023-03-22T13:05:10.800Z,66.67
2023-03-22T13:06:06.025Z,67.14
2023-03-22T13:07:08.960Z,67.38
2023-03-22T13:08:07.768Z,67.58
2023-03-22T13:09:05.580Z,66.67
2023-03-22T13:10:05.869Z,67.28
2023-03-22T13:11:10.006Z,67.18
2023-03-22T13:12:09.113Z,67.18
2023-03-22T13:13:13.027Z,67.38
2023-03-22T13:14:06.533Z,67.18
2023-03-22T13:15:10.902Z,67.14
2023-03-22T13:17:07.728Z,67.76
2023-03-22T13:18:07.478Z,66.54
2023-03-22T13:19:07.961Z,66.13
2023-03-22T13:20:08.522Z,66.37
2023-03-22T13:21:12.644Z,67.18
2023-03-22T13:22:11.837Z,66.54
2023-03-22T13:23:11.546Z,65.22
2023-03-22T13:24:09.298Z,65.63
2023-03-22T13:25:09.552Z,65.53
2023-03-22T13:26:11.430Z,65.32
2023-03-22T13:27:09.295Z,65.12
2023-03-22T13:28:10.840Z,64.69
2023-03-22T13:29:10.791Z,63.90
2023-03-22T13:30:10.735Z,64.31
2023-03-22T13:31:10.892Z,64.28
2023-03-22T13:32:12.237Z,64.89
2023-03-22T13:33:19.339Z,63.78
2023-03-22T13:34:12.208Z,63.47
2023-03-22T13:35:11.933Z,63.67
2023-03-22T13:36:13.733Z,64.31
2023-03-22T13:37:12.895Z,64.28
2023-03-22T13:38:14.173Z,64.28
2023-03-22T13:39:11.712Z,64.38
2023-03-22T13:40:14.479Z,64.18
2023-03-22T13:41:14.438Z,63.98
2023-03-22T13:42:13.521Z,64.38
2023-03-22T13:43:14.113Z,64.89
2023-03-22T13:44:13.049Z,65.09
2023-03-22T13:45:15.883Z,65.09
2023-03-22T13:46:14.217Z,64.58
2023-03-22T13:47:15.268Z,64.79
2023-03-22T13:48:14.751Z,65.29
2023-03-22T13:49:15.301Z,65.29
2023-03-22T13:50:14.246Z,65.39
2023-03-22T13:51:15.500Z,65.50
2023-03-22T13:52:15.348Z,64.89
2023-03-22T13:53:16.499Z,65.26
2023-03-22T13:54:16.888Z,64.76
2023-03-22T13:55:18.155Z,64.86
2023-03-22T13:56:17.664Z,64.45
2023-03-22T13:57:16.742Z,64.86
2023-03-22T13:58:17.360Z,64.25
2023-03-22T13:59:19.374Z,64.99
2023-03-22T14:00:20.442Z,66.20
2023-03-22T14:01:18.496Z,67.22
2023-03-22T14:02:18.862Z,69.78
2023-03-22T14:03:19.332Z,72.08
2023-03-22T14:04:18.578Z,75.35
2023-03-22T14:05:22.733Z,74.04
2023-03-22T14:06:20.911Z,75.66
2023-03-22T14:07:22.537Z,73.33
2023-03-22T14:08:19.974Z,72.52
2023-03-22T14:09:19.872Z,71.30
2023-03-22T14:10:19.521Z,70.76
2023-03-22T14:11:20.792Z,71.47
2023-03-22T14:12:20.220Z,71.06
2023-03-22T14:13:22.725Z,71.77
2023-03-22T14:14:21.188Z,70.65
2023-03-22T14:15:20.906Z,70.96
2023-03-22T14:16:21.807Z,71.47
2023-03-22T14:17:21.508Z,72.08
2023-03-22T14:18:21.944Z,72.68
2023-03-22T14:19:21.910Z,71.60
2023-03-22T14:20:23.431Z,72.01
2023-03-22T14:21:22.892Z,72.61
